METAR Data
IDs: Format: Raw Decoded Include TAF

Data at: 1249 UTC 16 Aug 2022

METAR for:KDEN (Denver Intl, CO, US)
Text:KDEN 161153Z 25005KT 10SM SCT065 BKN100 18/16 A3021 RMK AO2 SLP165 60001 70011 T01780156 10178 20167 51003
Temperature: 17.8°C ( 64°F)
Dewpoint: 15.6°C ( 60°F) [RH = 87%]
Pressure (altimeter):30.21 inches Hg (1023.1 mb) [Sea level pressure: 1016.5 mb]
Winds:from the WSW (250 degrees) at 6 MPH (5 knots; 2.6 m/s)
Visibility:10 or more sm (16+ km)
Ceiling:10000 feet AGL
Clouds: scattered clouds at 6500 feet AGL, broken clouds at 10000 feet AGL